Scroll down
FLIGHT INFORMATION
Air New Zealand

ANZ19

At Arrival Gate

KLAX
 NZAA
DATE: 2020-10-17
GATE: 74
GATE DEPARTURE: 04:05
TAKEOFF: 04:19
DATE: 2020-10-17
GATE: G20
LANDING: 16:46
GATE ARRIVAL: 16:51
FLIGHT DATA
Crew: 
Speed: 
945 kph
Altitude: 
36,020 ft
Stage Length: 
10,486.1 km
Block Time: 
12.7 hrs
Flight Time: 
12.5 hrs
Fuel Used: 
135,437 kg
Cleared Route: KLAX FICKY 30N23 28N25 18N35 15N38 10N42 06N45 BISOX PUMIS MEGOG ASORO OSUGA SAMAD TATAS AKLOM NZAA
TRACK DATA
50,000 ft 1,000 kts
AIRCRAFT INFO AND CUMULATIVE STATS
Aircraft Type: 
B744
Registration: 
SELCAL: 
JQEM
MSN/LN: 
24855 / 815
Operator: 
Total Flights: 
2
Total Block Time: 
14.1 hrs
Total Flight Time: 
13.4 hrs
Total Fuel Used: 
145,859 kg
DATALINK LOG | Newest first | Current as of: 2022-10-05 22:28:20
LABEL SEQUENCE CONTENT Dn/Up
QD484116:51 84.2▼ Dn
QC433616:46▼ Dn
GA0562GATE G20▲ Up
GR0552NZAA 16:37 HI-VAL NO DIPL/VIP NO▼ Dn
2U5648NZAA 151530Z AUTO 14009KT 9999 BKN049/// OVC065/// 09/06 Q1018 NOSIG▲ Up
2S4936NZAA▼ Dn
5U5516NZAA 151943Z 14008KT 9999 SCT050 09/06 Q1018▲ Up
5S4835NZAA▼ Dn
DM485341TATAS 14:59z FL360 AKLOM 16:05z EAGIL M0.83 52.7 -45 264/104 RW23L 16:40z▼ Dn
5R5341TATAS 14:59z FL360 AKLOM 16:05z EAGIL M0.83 52.7 -45 264/104 RW23L 16:40z▼ Dn
DM485244SAMAD 13:57z FL360 TATAS 14:57z AKLOM M0.83 62.4 -47 258/103 NZAA 16:36z▼ Dn
5R5244SAMAD 13:57z FL360 TATAS 14:57z AKLOM M0.83 62.4 -47 258/103 NZAA 16:36z▼ Dn
5U5331NZAA 151743Z 14008KT 9999 SCT050 09/07 Q1019▲ Up
5S4638NZAA▼ Dn
DM481110MEGOG 11:17z FL359 ASORO 12:05z OSUGA M0.84 87.6 -45 256/31 NZAA 16:30z▼ Dn
5R1110MEGOG 11:17z FL359 ASORO 12:05z OSUGA M0.84 87.6 -45 256/31 NZAA 16:30z▼ Dn
UM204758CLEARED TO FL 360▲ Up
DM64748REQUEST FL 360 DUE TO A/C PERF▼ Dn
DM484044BISOX 09:45z FL320 PUMIS 10:28z MEGOG M0.83 103.8 -35 277/19 NZAA 16:31z▼ Dn
5R4044BISOX 09:45z FL320 PUMIS 10:28z MEGOG M0.83 103.8 -35 277/19 NZAA 16:31z▼ Dn
DM48570718N35 06:57z FL320 15N38 07:28z 10N42 M0.83 135.2 -37 / NZAA 16:31z▼ Dn
5R570618N35 06:57z FL320 15N38 07:28z 10N42 M0.83 135.2 -37 / NZAA 16:31z▼ Dn
UM203339CLIMB TO 320▲ Up
UM132849AT 33 PAST THE HOUR EXPECT CLIMB TO 320▲ Up
DM67H2839WHEN CAN WE EXPECT CLIMB TO FL 320▼ Dn
UM0 UM192647UNABLE. MAINTAIN ASSIGNED ALTITUDE▲ Up
DM62637REQUEST FL 320 DUE TO A/C PERF▼ Dn
UM202929CLIMB TO 320▲ Up
UM131839AT 29 PAST THE HOUR EXPECT CLIMB TO 320▲ Up
DM67H1829WHEN CAN WE EXPECT CLIMB TO FL 320▼ Dn
UM0 UM191638UNABLE. MAINTAIN ASSIGNED ALTITUDE▲ Up
DM61628REQUEST FL 320 DUE TO A/C PERF▼ Dn
DM48162728N25 05:21z FL279 18N35 06:58z 15N38 M0.82 154.3 -29 / NZAA 16:38z▼ Dn
5R152628N25 05:21z FL279 18N35 06:58z 15N38 M0.82 154.3 -29 / NZAA 16:38z▼ Dn
QB121704:19▼ Dn
QA590704:05 382.9▼ Dn
A35303NO MATCHING FLIGHT DATA AVAILABLE FROM ANSP▲ Up
Q05201[LINK ACK]▲ Up
Q05201[LINK TEST]▼ Dn


AIRCRAFT HISTORY
FLIGHT DATE FLIGHT NO. ORIGIN DESTINATION CLEARED ROUTE BLOCK TIME FLIGHT TIME FUEL USED PILOT
2020-10-17ANZ19KLAX NZAA KLAX FICKY 30N23 28N25 18N35 15N38 10N42 06N45 BISOX PUMIS MEGOG ASORO OSUGA SAMAD TATAS AKLOM NZAA12.7 hrs12.5 hrs298,588 lbMike Dryden
2020-10-16ANZ7350KGYR KLAX KGYR BLH WBERG YCDIL PDZ BASET KLAX1.3 hrs1 hrs22,976 lbMike Dryden